sensor_id;sensor_type;location;lat;lon;timestamp;temperature;humidity
65995;HTU21D;52764;51.036;5.852;2022-11-15T00:00:30;13.56;78.40
65995;HTU21D;52764;51.036;5.852;2022-11-15T00:03:18;8.17;78.27
65995;HTU21D;52764;51.036;5.852;2022-11-15T00:06:03;-13.82;78.34
65995;HTU21D;52764;51.036;5.852;2022-11-15T00:08:48;13.61;78.27
65995;HTU21D;52764;51.036;5.852;2022-11-15T00:11:31;-13.77;69.04
65995;HTU21D;52764;51.036;5.852;2022-11-15T00:14:16;13.63;78.37
65995;HTU21D;52764;51.036;5.852;2022-11-15T00:17:00;13.63;78.40
65995;HTU21D;52764;51.036;5.852;2022-11-15T00:19:44;13.65;78.45
65995;HTU21D;52764;51.036;5.852;2022-11-15T00:22:33;13.66;78.59
65995;HTU21D;52764;51.036;5.852;2022-11-15T00:25:17;13.68;78.62
65995;HTU21D;52764;51.036;5.852;2022-11-15T00:28:13;13.66;78.83
65995;HTU21D;52764;51.036;5.852;2022-11-15T00:31:02;13.66;78.77
65995;HTU21D;52764;51.036;5.852;2022-11-15T00:33:47;13.69;78.76
65995;HTU21D;52764;51.036;5.852;2022-11-15T00:36:33;13.69;78.81
65995;HTU21D;52764;51.036;5.852;2022-11-15T00:39:18;13.67;79.05
65995;HTU21D;52764;51.036;5.852;2022-11-15T00:42:02;13.68;79.30
65995;HTU21D;52764;51.036;5.852;2022-11-15T00:44:47;13.60;78.27
65995;HTU21D;52764;51.036;5.852;2022-11-15T00:47:31;13.77;78.96
65995;HTU21D;52764;51.036;5.852;2022-11-15T00:50:15;13.76;79.01
65995;HTU21D;52764;51.036;5.852;2022-11-15T00:53:00;13.80;78.97
65995;HTU21D;52764;51.036;5.852;2022-11-15T00:55:44;13.81;78.87
65995;HTU21D;52764;51.036;5.852;2022-11-15T00:58:28;13.83;78.79
65995;HTU21D;52764;51.036;5.852;2022-11-15T01:01:14;13.84;78.74
65995;HTU21D;52764;51.036;5.852;2022-11-15T01:03:58;13.86;78.75
65995;HTU21D;52764;51.036;5.852;2022-11-15T01:06:42;13.84;78.79
65995;HTU21D;52764;51.036;5.852;2022-11-15T01:09:26;13.90;78.95
65995;HTU21D;52764;51.036;5.852;2022-11-15T01:12:10;13.95;78.80
65995;HTU21D;52764;51.036;5.852;2022-11-15T01:14:54;13.98;78.73
65995;HTU21D;52764;51.036;5.852;2022-11-15T01:17:38;14.01;78.53
65995;HTU21D;52764;51.036;5.852;2022-11-15T01:20:22;13.98;78.53
65995;HTU21D;52764;51.036;5.852;2022-11-15T01:23:06;13.93;78.77
65995;HTU21D;52764;51.036;5.852;2022-11-15T01:25:50;13.91;78.93
65995;HTU21D;52764;51.036;5.852;2022-11-15T01:28:37;13.91;79.01
65995;HTU21D;52764;51.036;5.852;2022-11-15T01:31:22;13.91;79.01
65995;HTU21D;52764;51.036;5.852;2022-11-15T01:34:06;13.94;78.95
65995;HTU21D;52764;51.036;5.852;2022-11-15T01:36:50;13.86;79.01
65995;HTU21D;52764;51.036;5.852;2022-11-15T01:39:35;13.84;79.11
65995;HTU21D;52764;51.036;5.852;2022-11-15T01:42:19;13.77;79.87
65995;HTU21D;52764;51.036;5.852;2022-11-15T01:45:04;13.80;79.97
65995;HTU21D;52764;51.036;5.852;2022-11-15T01:47:54;13.85;79.93
65995;HTU21D;52764;51.036;5.852;2022-11-15T01:50:39;13.88;79.78
65995;HTU21D;52764;51.036;5.852;2022-11-15T01:53:25;13.89;79.89
65995;HTU21D;52764;51.036;5.852;2022-11-15T01:56:15;13.95;79.67
65995;HTU21D;52764;51.036;5.852;2022-11-15T01:59:05;14.05;79.27
65995;HTU21D;52764;51.036;5.852;2022-11-15T02:01:50;14.11;78.98
65995;HTU21D;52764;51.036;5.852;2022-11-15T02:04:41;-22.40;78.34
65995;HTU21D;52764;51.036;5.852;2022-11-15T02:07:25;14.15;78.61
65995;HTU21D;52764;51.036;5.852;2022-11-15T02:10:18;9.37;78.61
65995;HTU21D;52764;51.036;5.852;2022-11-15T02:13:03;14.25;78.43
65995;HTU21D;52764;51.036;5.852;2022-11-15T02:31:17;14.27;78.58
65995;HTU21D;52764;51.036;5.852;2022-11-15T02:34:32;14.24;78.88
65995;HTU21D;52764;51.036;5.852;2022-11-15T02:37:37;14.80;79.19
65995;HTU21D;52764;51.036;5.852;2022-11-15T02:40:39;14.11;80.26
65995;HTU21D;52764;51.036;5.852;2022-11-15T02:43:35;13.96;81.49
65995;HTU21D;52764;51.036;5.852;2022-11-15T02:49:55;13.95;82.62
65995;HTU21D;52764;51.036;5.852;2022-11-15T02:52:45;13.95;82.83
65995;HTU21D;52764;51.036;5.852;2022-11-15T02:55:34;13.93;82.90
65995;HTU21D;52764;51.036;5.852;2022-11-15T03:02:05;13.88;83.07
65995;HTU21D;52764;51.036;5.852;2022-11-15T03:05:07;13.86;83.10
65995;HTU21D;52764;51.036;5.852;2022-11-15T03:19:34;13.82;82.70
65995;HTU21D;52764;51.036;5.852;2022-11-15T03:22:23;13.88;82.49
65995;HTU21D;52764;51.036;5.852;2022-11-15T03:25:12;13.91;82.42
65995;HTU21D;52764;51.036;5.852;2022-11-15T03:28:05;13.92;82.32
65995;HTU21D;52764;51.036;5.852;2022-11-15T03:30:53;13.93;82.31
65995;HTU21D;52764;51.036;5.852;2022-11-15T03:33:40;14.05;76.62
65995;HTU21D;52764;51.036;5.852;2022-11-15T03:36:26;13.96;82.16
65995;HTU21D;52764;51.036;5.852;2022-11-15T03:39:13;13.99;82.24
65995;HTU21D;52764;51.036;5.852;2022-11-15T03:42:13;14.00;82.23
65995;HTU21D;52764;51.036;5.852;2022-11-15T03:45:16;14.00;82.34
65995;HTU21D;52764;51.036;5.852;2022-11-15T03:48:19;14.00;82.29
65995;HTU21D;52764;51.036;5.852;2022-11-15T03:51:05;14.04;82.26
65995;HTU21D;52764;51.036;5.852;2022-11-15T03:53:50;14.06;82.20
65995;HTU21D;52764;51.036;5.852;2022-11-15T03:56:34;14.07;82.07
65995;HTU21D;52764;51.036;5.852;2022-11-15T03:59:18;9.22;81.91
65995;HTU21D;52764;51.036;5.852;2022-11-15T04:02:03;14.13;81.84
65995;HTU21D;52764;51.036;5.852;2022-11-15T04:04:47;14.17;81.69
65995;HTU21D;52764;51.036;5.852;2022-11-15T04:07:31;14.20;81.55
65995;HTU21D;52764;51.036;5.852;2022-11-15T04:10:15;14.21;81.41
65995;HTU21D;52764;51.036;5.852;2022-11-15T04:13:02;14.20;81.39
65995;HTU21D;52764;51.036;5.852;2022-11-15T04:15:46;14.21;81.28
65995;HTU21D;52764;51.036;5.852;2022-11-15T04:18:30;14.20;81.20
65995;HTU21D;52764;51.036;5.852;2022-11-15T04:21:14;-12.68;81.20
65995;HTU21D;52764;51.036;5.852;2022-11-15T04:24:17;14.13;81.30
65995;HTU21D;52764;51.036;5.852;2022-11-15T04:27:01;14.14;81.07
65995;HTU21D;52764;51.036;5.852;2022-11-15T04:29:45;14.09;81.26
65995;HTU21D;52764;51.036;5.852;2022-11-15T04:32:30;14.10;81.09
65995;HTU21D;52764;51.036;5.852;2022-11-15T04:35:14;14.10;81.27
65995;HTU21D;52764;51.036;5.852;2022-11-15T04:37:58;14.10;82.69
65995;HTU21D;52764;51.036;5.852;2022-11-15T04:40:42;14.07;81.58
65995;HTU21D;52764;51.036;5.852;2022-11-15T04:43:27;9.14;81.59
65995;HTU21D;52764;51.036;5.852;2022-11-15T04:46:12;14.13;82.55
65995;HTU21D;52764;51.036;5.852;2022-11-15T04:48:56;14.18;81.10
65995;HTU21D;52764;51.036;5.852;2022-11-15T04:51:41;14.14;81.10
65995;HTU21D;52764;51.036;5.852;2022-11-15T04:54:25;14.13;81.18
65995;HTU21D;52764;51.036;5.852;2022-11-15T04:57:09;14.15;81.16
65995;HTU21D;52764;51.036;5.852;2022-11-15T04:59:53;14.15;81.10
65995;HTU21D;52764;51.036;5.852;2022-11-15T05:02:37;14.18;81.07
65995;HTU21D;52764;51.036;5.852;2022-11-15T05:05:40;14.20;80.91
65995;HTU21D;52764;51.036;5.852;2022-11-15T05:08:25;14.21;80.94
65995;HTU21D;52764;51.036;5.852;2022-11-15T05:11:09;14.17;81.10
65995;HTU21D;52764;51.036;5.852;2022-11-15T05:13:53;14.18;81.10
65995;HTU21D;52764;51.036;5.852;2022-11-15T05:16:38;14.17;81.09
65995;HTU21D;52764;51.036;5.852;2022-11-15T05:19:23;14.15;81.09
65995;HTU21D;52764;51.036;5.852;2022-11-15T05:22:07;14.10;81.15
65995;HTU21D;52764;51.036;5.852;2022-11-15T05:24:51;8.96;81.75
65995;HTU21D;52764;51.036;5.852;2022-11-15T05:27:35;13.94;82.36
65995;HTU21D;52764;51.036;5.852;2022-11-15T05:30:19;13.93;82.77
65995;HTU21D;52764;51.036;5.852;2022-11-15T05:33:04;13.91;83.04
65995;HTU21D;52764;51.036;5.852;2022-11-15T05:38:54;13.92;83.50
65995;HTU21D;52764;51.036;5.852;2022-11-15T05:41:44;13.94;83.50
65995;HTU21D;52764;51.036;5.852;2022-11-15T05:44:31;13.92;83.68
65995;HTU21D;52764;51.036;5.852;2022-11-15T05:47:20;13.89;84.03
65995;HTU21D;52764;51.036;5.852;2022-11-15T05:50:07;13.91;84.06
65995;HTU21D;52764;51.036;5.852;2022-11-15T05:52:51;13.91;84.08
65995;HTU21D;52764;51.036;5.852;2022-11-15T05:55:38;13.92;84.30
65995;HTU21D;52764;51.036;5.852;2022-11-15T05:58:23;13.83;84.23
65995;HTU21D;52764;51.036;5.852;2022-11-15T06:01:08;13.68;83.92
65995;HTU21D;52764;51.036;5.852;2022-11-15T06:03:52;13.58;83.87
65995;HTU21D;52764;51.036;5.852;2022-11-15T06:06:36;13.53;83.85
65995;HTU21D;52764;51.036;5.852;2022-11-15T06:09:20;13.52;83.41
65995;HTU21D;52764;51.036;5.852;2022-11-15T06:12:04;13.53;83.22
65995;HTU21D;52764;51.036;5.852;2022-11-15T06:14:49;13.50;82.76
65995;HTU21D;52764;51.036;5.852;2022-11-15T06:17:33;13.38;82.45
65995;HTU21D;52764;51.036;5.852;2022-11-15T06:20:17;13.49;82.19
65995;HTU21D;52764;51.036;5.852;2022-11-15T06:23:04;13.47;81.91
65995;HTU21D;52764;51.036;5.852;2022-11-15T06:25:48;13.46;81.81
65995;HTU21D;52764;51.036;5.852;2022-11-15T06:28:33;13.40;83.53
65995;HTU21D;52764;51.036;5.852;2022-11-15T06:31:17;13.38;81.65
65995;HTU21D;52764;51.036;5.852;2022-11-15T06:34:01;13.34;81.60
65995;HTU21D;52764;51.036;5.852;2022-11-15T06:36:45;13.30;81.70
65995;HTU21D;52764;51.036;5.852;2022-11-15T06:39:30;13.32;81.67
65995;HTU21D;52764;51.036;5.852;2022-11-15T06:42:14;13.37;81.37
65995;HTU21D;52764;51.036;5.852;2022-11-15T06:44:59;13.34;81.21
65995;HTU21D;52764;51.036;5.852;2022-11-15T06:47:46;13.30;81.31
65995;HTU21D;52764;51.036;5.852;2022-11-15T06:50:31;13.23;81.39
65995;HTU21D;52764;51.036;5.852;2022-11-15T06:53:15;13.20;81.60
65995;HTU21D;52764;51.036;5.852;2022-11-15T06:56:03;13.21;81.59
65995;HTU21D;52764;51.036;5.852;2022-11-15T06:58:48;13.23;81.46
65995;HTU21D;52764;51.036;5.852;2022-11-15T07:01:32;13.23;81.28
65995;HTU21D;52764;51.036;5.852;2022-11-15T07:04:16;13.25;74.44
65995;HTU21D;52764;51.036;5.852;2022-11-15T07:07:00;13.07;81.10
65995;HTU21D;52764;51.036;5.852;2022-11-15T07:09:44;13.15;81.25
65995;HTU21D;52764;51.036;5.852;2022-11-15T07:12:28;13.01;81.34
65995;HTU21D;52764;51.036;5.852;2022-11-15T07:15:12;13.01;81.20
65995;HTU21D;52764;51.036;5.852;2022-11-15T07:18:00;13.02;80.67
65995;HTU21D;52764;51.036;5.852;2022-11-15T07:20:44;13.03;80.43
65995;HTU21D;52764;51.036;5.852;2022-11-15T07:23:28;13.03;80.28
65995;HTU21D;52764;51.036;5.852;2022-11-15T07:26:13;13.04;80.20
65995;HTU21D;52764;51.036;5.852;2022-11-15T07:28:57;13.10;80.15
65995;HTU21D;52764;51.036;5.852;2022-11-15T07:31:41;13.10;79.87
65995;HTU21D;52764;51.036;5.852;2022-11-15T07:34:25;13.04;79.99
65995;HTU21D;52764;51.036;5.852;2022-11-15T07:37:10;13.01;72.93
65995;HTU21D;52764;51.036;5.852;2022-11-15T07:39:54;13.00;80.78
65995;HTU21D;52764;51.036;5.852;2022-11-15T07:42:38;13.09;80.64
65995;HTU21D;52764;51.036;5.852;2022-11-15T07:45:45;13.24;80.31
65995;HTU21D;52764;51.036;5.852;2022-11-15T07:48:30;13.38;79.86
65995;HTU21D;52764;51.036;5.852;2022-11-15T07:51:16;13.53;79.24
65995;HTU21D;52764;51.036;5.852;2022-11-15T07:54:01;13.60;78.73
65995;HTU21D;52764;51.036;5.852;2022-11-15T07:56:45;13.67;78.34
65995;HTU21D;52764;51.036;5.852;2022-11-15T07:59:29;13.73;76.25
65995;HTU21D;52764;51.036;5.852;2022-11-15T08:02:13;13.77;77.82
65995;HTU21D;52764;51.036;5.852;2022-11-15T08:04:57;13.74;77.67
65995;HTU21D;52764;51.036;5.852;2022-11-15T08:07:41;13.68;77.84
65995;HTU21D;52764;51.036;5.852;2022-11-15T08:10:27;13.69;77.91
65995;HTU21D;52764;51.036;5.852;2022-11-15T08:13:12;13.70;77.94
65995;HTU21D;52764;51.036;5.852;2022-11-15T08:16:01;13.74;77.69
65995;HTU21D;52764;51.036;5.852;2022-11-15T08:18:46;8.49;77.43
65995;HTU21D;52764;51.036;5.852;2022-11-15T08:21:30;13.83;77.25
65995;HTU21D;52764;51.036;5.852;2022-11-15T08:24:15;13.89;76.90
65995;HTU21D;52764;51.036;5.852;2022-11-15T08:26:59;-13.04;76.31
65995;HTU21D;52764;51.036;5.852;2022-11-15T08:29:44;13.98;75.86
65995;HTU21D;52764;51.036;5.852;2022-11-15T08:32:30;13.97;75.46
65995;HTU21D;52764;51.036;5.852;2022-11-15T08:35:15;13.93;74.57
65995;HTU21D;52764;51.036;5.852;2022-11-15T08:37:59;13.95;74.06
65995;HTU21D;52764;51.036;5.852;2022-11-15T08:40:43;-23.17;73.41
65995;HTU21D;52764;51.036;5.852;2022-11-15T08:43:27;14.07;72.55
65995;HTU21D;52764;51.036;5.852;2022-11-15T08:46:13;14.10;71.67
65995;HTU21D;52764;51.036;5.852;2022-11-15T08:48:57;14.10;71.41
65995;HTU21D;52764;51.036;5.852;2022-11-15T08:51:41;14.13;70.56
65995;HTU21D;52764;51.036;5.852;2022-11-15T08:54:26;14.08;69.93
65995;HTU21D;52764;51.036;5.852;2022-11-15T08:57:11;14.08;69.34
65995;HTU21D;52764;51.036;5.852;2022-11-15T08:59:54;14.09;69.17
65995;HTU21D;52764;51.036;5.852;2022-11-15T09:02:40;14.14;68.84
65995;HTU21D;52764;51.036;5.852;2022-11-15T09:05:25;14.21;68.65
65995;HTU21D;52764;51.036;5.852;2022-11-15T09:08:09;14.22;68.69
65995;HTU21D;52764;51.036;5.852;2022-11-15T09:10:52;14.22;68.19
65995;HTU21D;52764;51.036;5.852;2022-11-15T09:13:37;9.46;67.97
65995;HTU21D;52764;51.036;5.852;2022-11-15T09:16:21;14.22;67.87
65995;HTU21D;52764;51.036;5.852;2022-11-15T09:19:06;14.20;67.65
65995;HTU21D;52764;51.036;5.852;2022-11-15T09:21:51;14.21;67.55
65995;HTU21D;52764;51.036;5.852;2022-11-15T09:24:35;14.21;67.49
65995;HTU21D;52764;51.036;5.852;2022-11-15T09:27:19;14.32;67.26
65995;HTU21D;52764;51.036;5.852;2022-11-15T09:30:04;14.39;61.99
65995;HTU21D;52764;51.036;5.852;2022-11-15T09:32:48;14.42;66.74
65995;HTU21D;52764;51.036;5.852;2022-11-15T09:35:32;-12.14;64.87
65995;HTU21D;52764;51.036;5.852;2022-11-15T09:38:16;14.56;66.37
65995;HTU21D;52764;51.036;5.852;2022-11-15T09:44:29;14.40;65.44
65995;HTU21D;52764;51.036;5.852;2022-11-15T09:50:09;14.43;64.96
65995;HTU21D;52764;51.036;5.852;2022-11-15T09:52:39;14.44;65.05
65995;HTU21D;52764;51.036;5.852;2022-11-15T09:55:10;14.48;65.22
65995;HTU21D;52764;51.036;5.852;2022-11-15T09:57:54;-12.04;65.23
65995;HTU21D;52764;51.036;5.852;2022-11-15T10:00:38;14.51;65.06
65995;HTU21D;52764;51.036;5.852;2022-11-15T10:03:16;14.50;65.03
65995;HTU21D;52764;51.036;5.852;2022-11-15T10:05:49;14.47;64.95
65995;HTU21D;52764;51.036;5.852;2022-11-15T10:11:00;14.43;64.56
65995;HTU21D;52764;51.036;5.852;2022-11-15T10:13:34;14.03;64.47
65995;HTU21D;52764;51.036;5.852;2022-11-15T10:24:28;14.55;63.85
65995;HTU21D;52764;51.036;5.852;2022-11-15T10:26:55;14.66;63.45
65995;HTU21D;52764;51.036;5.852;2022-11-15T10:29:23;14.70;63.27
65995;HTU21D;52764;51.036;5.852;2022-11-15T10:31:49;14.78;62.67
65995;HTU21D;52764;51.036;5.852;2022-11-15T10:34:23;14.86;62.18
65995;HTU21D;52764;51.036;5.852;2022-11-15T10:37:00;14.95;61.47
65995;HTU21D;52764;51.036;5.852;2022-11-15T10:39:28;15.01;61.42
65995;HTU21D;52764;51.036;5.852;2022-11-15T10:41:54;15.11;61.15
65995;HTU21D;52764;51.036;5.852;2022-11-15T10:44:26;15.15;63.85
65995;HTU21D;52764;51.036;5.852;2022-11-15T10:49:23;15.34;59.43
65995;HTU21D;52764;51.036;5.852;2022-11-15T10:51:55;15.46;58.87
65995;HTU21D;52764;51.036;5.852;2022-11-15T10:57:10;15.61;58.20
65995;HTU21D;52764;51.036;5.852;2022-11-15T10:59:38;15.70;57.44
65995;HTU21D;52764;51.036;5.852;2022-11-15T11:05:24;15.93;56.43
65995;HTU21D;52764;51.036;5.852;2022-11-15T11:07:57;16.05;56.13
65995;HTU21D;52764;51.036;5.852;2022-11-15T11:10:23;16.08;55.80
65995;HTU21D;52764;51.036;5.852;2022-11-15T11:12:49;16.10;55.45
65995;HTU21D;52764;51.036;5.852;2022-11-15T11:15:17;16.15;55.43
65995;HTU21D;52764;51.036;5.852;2022-11-15T11:18:02;16.21;55.66
65995;HTU21D;52764;51.036;5.852;2022-11-15T11:20:49;16.24;55.25
65995;HTU21D;52764;51.036;5.852;2022-11-15T11:26:35;-8.52;55.05
65995;HTU21D;52764;51.036;5.852;2022-11-15T11:37:43;-13.65;54.62
65995;HTU21D;52764;51.036;5.852;2022-11-15T11:48:13;16.42;53.64
65995;HTU21D;52764;51.036;5.852;2022-11-15T11:50:42;16.48;53.39
65995;HTU21D;52764;51.036;5.852;2022-11-15T11:53:31;16.57;53.21
65995;HTU21D;52764;51.036;5.852;2022-11-15T11:56:03;16.52;52.66
65995;HTU21D;52764;51.036;5.852;2022-11-15T11:58:37;16.54;48.17
65995;HTU21D;52764;51.036;5.852;2022-11-15T12:01:17;16.55;52.61
65995;HTU21D;52764;51.036;5.852;2022-11-15T12:03:47;16.79;52.39
65995;HTU21D;52764;51.036;5.852;2022-11-15T12:06:33;16.58;52.51
65995;HTU21D;52764;51.036;5.852;2022-11-15T12:09:03;16.62;52.83
65995;HTU21D;52764;51.036;5.852;2022-11-15T12:14:40;16.64;52.36
65995;HTU21D;52764;51.036;5.852;2022-11-15T12:17:13;16.58;52.36
65995;HTU21D;52764;51.036;5.852;2022-11-15T12:19:40;16.55;52.46
65995;HTU21D;52764;51.036;5.852;2022-11-15T12:24:40;-8.15;52.84
65995;HTU21D;52764;51.036;5.852;2022-11-15T12:30:02;16.66;53.12
65995;HTU21D;52764;51.036;5.852;2022-11-15T12:32:36;-8.18;53.26
65995;HTU21D;52764;51.036;5.852;2022-11-15T12:35:06;16.36;53.38
65995;HTU21D;52764;51.036;5.852;2022-11-15T12:37:51;16.31;53.81
65995;HTU21D;52764;51.036;5.852;2022-11-15T12:40:30;16.25;54.20
65995;HTU21D;52764;51.036;5.852;2022-11-15T12:45:35;16.16;54.89
65995;HTU21D;52764;51.036;5.852;2022-11-15T13:01:10;16.37;56.25
65995;HTU21D;52764;51.036;5.852;2022-11-15T13:06:43;16.39;56.36
65995;HTU21D;52764;51.036;5.852;2022-11-15T13:11:58;13.90;56.76
65995;HTU21D;52764;51.036;5.852;2022-11-15T13:22:40;16.55;57.71
65995;HTU21D;52764;51.036;5.852;2022-11-15T13:28:00;16.69;57.48
65995;HTU21D;52764;51.036;5.852;2022-11-15T13:30:30;16.79;57.26
65995;HTU21D;52764;51.036;5.852;2022-11-15T13:33:15;16.84;57.29
65995;HTU21D;52764;51.036;5.852;2022-11-15T13:35:47;16.85;57.42
65995;HTU21D;52764;51.036;5.852;2022-11-15T13:38:27;16.79;57.88
65995;HTU21D;52764;51.036;5.852;2022-11-15T13:40:54;16.78;58.09
65995;HTU21D;52764;51.036;5.852;2022-11-15T13:48:30;16.67;60.46
65995;HTU21D;52764;51.036;5.852;2022-11-15T13:50:57;17.20;58.66
65995;HTU21D;52764;51.036;5.852;2022-11-15T13:53:24;14.37;58.35
65995;HTU21D;52764;51.036;5.852;2022-11-15T13:55:53;16.74;59.32
65995;HTU21D;52764;51.036;5.852;2022-11-15T13:58:19;16.75;59.15
65995;HTU21D;52764;51.036;5.852;2022-11-15T14:00:45;16.71;58.49
65995;HTU21D;52764;51.036;5.852;2022-11-15T14:03:19;16.66;58.99
65995;HTU21D;52764;51.036;5.852;2022-11-15T14:08:32;16.66;59.34
65995;HTU21D;52764;51.036;5.852;2022-11-15T14:11:17;16.63;59.14
65995;HTU21D;52764;51.036;5.852;2022-11-15T14:14:11;16.69;59.18
65995;HTU21D;52764;51.036;5.852;2022-11-15T14:19:13;16.77;58.96
65995;HTU21D;52764;51.036;5.852;2022-11-15T14:22:31;16.72;58.96
65995;HTU21D;52764;51.036;5.852;2022-11-15T14:25:17;16.76;59.08
65995;HTU21D;52764;51.036;5.852;2022-11-15T14:28:07;16.79;58.76
65995;HTU21D;52764;51.036;5.852;2022-11-15T14:30:34;16.80;58.94
65995;HTU21D;52764;51.036;5.852;2022-11-15T14:32:59;16.77;58.99
65995;HTU21D;52764;51.036;5.852;2022-11-15T14:35:25;16.74;59.00
65995;HTU21D;52764;51.036;5.852;2022-11-15T14:37:51;16.72;58.96
65995;HTU21D;52764;51.036;5.852;2022-11-15T14:40:19;16.66;58.78
65995;HTU21D;52764;51.036;5.852;2022-11-15T14:42:47;16.60;58.41
65995;HTU21D;52764;51.036;5.852;2022-11-15T14:45:16;16.56;61.45
65995;HTU21D;52764;51.036;5.852;2022-11-15T14:47:43;16.50;59.12
65995;HTU21D;52764;51.036;5.852;2022-11-15T14:50:14;16.43;59.17
65995;HTU21D;52764;51.036;5.852;2022-11-15T14:52:41;16.30;59.55
65995;HTU21D;52764;51.036;5.852;2022-11-15T14:57:53;16.22;63.69
65995;HTU21D;52764;51.036;5.852;2022-11-15T15:00:18;16.17;60.12
65995;HTU21D;52764;51.036;5.852;2022-11-15T15:02:46;16.10;60.20
65995;HTU21D;52764;51.036;5.852;2022-11-15T15:07:44;15.95;64.56
65995;HTU21D;52764;51.036;5.852;2022-11-15T15:10:10;15.92;60.57
65995;HTU21D;52764;51.036;5.852;2022-11-15T15:12:37;15.78;60.76
65995;HTU21D;52764;51.036;5.852;2022-11-15T15:15:03;-9.25;60.83
65995;HTU21D;52764;51.036;5.852;2022-11-15T15:17:29;15.81;61.04
65995;HTU21D;52764;51.036;5.852;2022-11-15T15:19:55;15.70;62.08
65995;HTU21D;52764;51.036;5.852;2022-11-15T15:22:20;15.62;60.55
65995;HTU21D;52764;51.036;5.852;2022-11-15T15:24:51;15.62;61.45
65995;HTU21D;52764;51.036;5.852;2022-11-15T15:27:17;15.59;66.61
65995;HTU21D;52764;51.036;5.852;2022-11-15T15:29:42;15.57;61.34
65995;HTU21D;52764;51.036;5.852;2022-11-15T15:32:09;15.55;61.57
65995;HTU21D;52764;51.036;5.852;2022-11-15T15:34:35;15.56;61.44
65995;HTU21D;52764;51.036;5.852;2022-11-15T15:37:27;15.54;61.57
65995;HTU21D;52764;51.036;5.852;2022-11-15T15:39:55;15.58;61.54
65995;HTU21D;52764;51.036;5.852;2022-11-15T15:42:22;15.56;61.50
65995;HTU21D;52764;51.036;5.852;2022-11-15T15:44:49;15.54;61.56
65995;HTU21D;52764;51.036;5.852;2022-11-15T15:47:21;15.52;61.47
65995;HTU21D;52764;51.036;5.852;2022-11-15T15:49:49;15.44;61.50
65995;HTU21D;52764;51.036;5.852;2022-11-15T15:52:15;15.45;61.53
65995;HTU21D;52764;51.036;5.852;2022-11-15T15:54:41;15.43;61.68
65995;HTU21D;52764;51.036;5.852;2022-11-15T15:57:08;15.45;61.98
65995;HTU21D;52764;51.036;5.852;2022-11-15T15:59:36;15.38;62.14
65995;HTU21D;52764;51.036;5.852;2022-11-15T16:02:02;15.41;62.44
65995;HTU21D;52764;51.036;5.852;2022-11-15T16:04:28;14.43;63.04
65995;HTU21D;52764;51.036;5.852;2022-11-15T16:07:01;15.23;63.91
65995;HTU21D;52764;51.036;5.852;2022-11-15T16:09:27;-10.94;64.90
65995;HTU21D;52764;51.036;5.852;2022-11-15T16:12:12;14.87;66.05
65995;HTU21D;52764;51.036;5.852;2022-11-15T16:14:37;14.58;66.96
65995;HTU21D;52764;51.036;5.852;2022-11-15T16:17:04;10.38;67.88
65995;HTU21D;52764;51.036;5.852;2022-11-15T16:19:29;10.06;68.81
65995;HTU21D;52764;51.036;5.852;2022-11-15T16:21:55;14.34;69.75
65995;HTU21D;52764;51.036;5.852;2022-11-15T16:24:21;14.23;70.93
65995;HTU21D;52764;51.036;5.852;2022-11-15T16:26:48;14.19;71.57
65995;HTU21D;52764;51.036;5.852;2022-11-15T16:29:15;14.15;72.21
65995;HTU21D;52764;51.036;5.852;2022-11-15T16:31:41;13.97;73.12
65995;HTU21D;52764;51.036;5.852;2022-11-15T16:34:07;13.84;73.83
65995;HTU21D;52764;51.036;5.852;2022-11-15T16:36:34;13.70;74.70
65995;HTU21D;52764;51.036;5.852;2022-11-15T16:39:01;13.64;75.12
65995;HTU21D;52764;51.036;5.852;2022-11-15T16:41:31;13.62;78.91
65995;HTU21D;52764;51.036;5.852;2022-11-15T16:43:57;13.61;75.94
65995;HTU21D;52764;51.036;5.852;2022-11-15T16:46:27;13.56;76.24
65995;HTU21D;52764;51.036;5.852;2022-11-15T16:48:53;13.45;77.11
65995;HTU21D;52764;51.036;5.852;2022-11-15T16:51:19;13.56;77.08
65995;HTU21D;52764;51.036;5.852;2022-11-15T16:53:46;13.47;77.34
65995;HTU21D;52764;51.036;5.852;2022-11-15T16:56:28;13.37;78.47
65995;HTU21D;52764;51.036;5.852;2022-11-15T16:58:55;13.37;79.03
65995;HTU21D;52764;51.036;5.852;2022-11-15T17:01:25;13.29;79.53
65995;HTU21D;52764;51.036;5.852;2022-11-15T17:03:51;13.20;80.09
65995;HTU21D;52764;51.036;5.852;2022-11-15T17:06:17;13.11;80.65
65995;HTU21D;52764;51.036;5.852;2022-11-15T17:08:44;13.08;81.24
65995;HTU21D;52764;51.036;5.852;2022-11-15T17:11:14;13.07;81.65
65995;HTU21D;52764;51.036;5.852;2022-11-15T17:13:40;13.07;81.89
65995;HTU21D;52764;51.036;5.852;2022-11-15T17:16:11;13.06;82.08
65995;HTU21D;52764;51.036;5.852;2022-11-15T17:18:38;12.99;82.58
65995;HTU21D;52764;51.036;5.852;2022-11-15T17:21:12;12.99;83.16
65995;HTU21D;52764;51.036;5.852;2022-11-15T17:23:39;12.88;83.39
65995;HTU21D;52764;51.036;5.852;2022-11-15T17:26:05;12.81;83.95
65995;HTU21D;52764;51.036;5.852;2022-11-15T17:28:32;12.77;84.27
65995;HTU21D;52764;51.036;5.852;2022-11-15T17:30:59;12.76;84.64
65995;HTU21D;52764;51.036;5.852;2022-11-15T17:33:25;12.86;84.55
65995;HTU21D;52764;51.036;5.852;2022-11-15T17:35:55;12.86;84.45
65995;HTU21D;52764;51.036;5.852;2022-11-15T17:38:21;12.95;84.57
65995;HTU21D;52764;51.036;5.852;2022-11-15T17:40:47;13.03;84.23
65995;HTU21D;52764;51.036;5.852;2022-11-15T17:43:12;13.02;84.20
65995;HTU21D;52764;51.036;5.852;2022-11-15T17:45:41;13.03;84.42
65995;HTU21D;52764;51.036;5.852;2022-11-15T17:48:07;13.08;84.51
65995;HTU21D;52764;51.036;5.852;2022-11-15T17:50:32;13.21;84.23
65995;HTU21D;52764;51.036;5.852;2022-11-15T17:52:59;13.38;83.86
65995;HTU21D;52764;51.036;5.852;2022-11-15T17:55:24;13.51;83.26
65995;HTU21D;52764;51.036;5.852;2022-11-15T17:57:50;13.56;82.94
65995;HTU21D;52764;51.036;5.852;2022-11-15T18:00:16;13.53;83.05
65995;HTU21D;52764;51.036;5.852;2022-11-15T18:02:45;13.34;83.62
65995;HTU21D;52764;51.036;5.852;2022-11-15T18:05:11;13.27;84.29
65995;HTU21D;52764;51.036;5.852;2022-11-15T18:07:39;13.34;81.27
65995;HTU21D;52764;51.036;5.852;2022-11-15T18:10:06;13.40;84.54
65995;HTU21D;52764;51.036;5.852;2022-11-15T18:12:32;13.52;84.02
65995;HTU21D;52764;51.036;5.852;2022-11-15T18:14:58;13.64;83.67
65995;HTU21D;52764;51.036;5.852;2022-11-15T18:17:24;13.69;83.61
65995;HTU21D;52764;51.036;5.852;2022-11-15T18:19:50;13.66;83.61
65995;HTU21D;52764;51.036;5.852;2022-11-15T18:22:16;13.53;83.90
65995;HTU21D;52764;51.036;5.852;2022-11-15T18:24:42;13.43;84.45
65995;HTU21D;52764;51.036;5.852;2022-11-15T18:27:09;13.40;84.74
65995;HTU21D;52764;51.036;5.852;2022-11-15T18:29:35;13.39;84.86
65995;HTU21D;52764;51.036;5.852;2022-11-15T18:32:04;13.23;85.28
65995;HTU21D;52764;51.036;5.852;2022-11-15T18:34:35;13.14;85.62
65995;HTU21D;52764;51.036;5.852;2022-11-15T18:37:01;13.10;86.01
65995;HTU21D;52764;51.036;5.852;2022-11-15T18:39:27;13.11;86.48
65995;HTU21D;52764;51.036;5.852;2022-11-15T18:41:53;13.14;86.12
65995;HTU21D;52764;51.036;5.852;2022-11-15T18:44:19;13.20;84.48